createdAt,value
2018-05-25T00:00:54.243Z,4.53
2018-05-25T00:03:21.672Z,4.18
2018-05-25T00:05:49.085Z,5.78
2018-05-25T00:08:16.495Z,6.30
2018-05-25T00:10:43.908Z,7.07
2018-05-25T00:13:11.332Z,5.03
2018-05-25T00:15:38.753Z,5.68
2018-05-25T00:18:06.164Z,6.03
2018-05-25T00:20:33.573Z,4.65
2018-05-25T00:23:00.996Z,6.28
2018-05-25T00:25:28.405Z,5.50
2018-05-25T00:27:55.815Z,5.53
2018-05-25T00:30:23.224Z,7.97
2018-05-25T00:32:50.653Z,5.47
2018-05-25T00:35:18.057Z,3.83
2018-05-25T00:37:45.477Z,5.12
2018-05-25T00:40:12.891Z,5.15
2018-05-25T00:42:40.310Z,4.15
2018-05-25T00:45:07.721Z,4.75
2018-05-25T00:47:35.136Z,6.78
2018-05-25T00:50:02.577Z,4.10
2018-05-25T00:52:29.994Z,5.35
2018-05-25T00:55:09.208Z,3.45
2018-05-25T00:57:36.621Z,5.85
2018-05-25T01:00:04.035Z,4.80
2018-05-25T01:02:31.445Z,6.55
2018-05-25T01:04:58.852Z,3.50
2018-05-25T01:07:26.270Z,4.45
2018-05-25T01:09:53.684Z,6.95
2018-05-25T01:12:21.124Z,5.45
2018-05-25T01:14:48.534Z,7.00
2018-05-25T01:17:15.940Z,5.53
2018-05-25T01:19:43.352Z,3.60
2018-05-25T01:22:10.764Z,3.75
2018-05-25T01:24:38.180Z,5.25
2018-05-25T01:27:05.596Z,4.68
2018-05-25T01:29:33.005Z,4.72
2018-05-25T01:32:00.412Z,4.65
2018-05-25T01:34:27.833Z,4.10
2018-05-25T01:36:55.244Z,4.95
2018-05-25T01:39:22.651Z,4.85
2018-05-25T01:41:50.089Z,4.55
2018-05-25T01:44:17.500Z,2.12
2018-05-25T01:46:44.900Z,3.40
2018-05-25T01:49:12.321Z,4.90
2018-05-25T01:51:39.736Z,3.47
2018-05-25T01:54:07.154Z,5.68
2018-05-25T01:56:34.560Z,5.75
2018-05-25T01:59:01.983Z,4.22
2018-05-25T02:01:29.387Z,3.62
2018-05-25T02:03:56.796Z,6.70
2018-05-25T02:06:24.208Z,4.30
2018-05-25T02:08:51.620Z,5.03
2018-05-25T02:11:19.038Z,5.10
2018-05-25T02:13:46.462Z,5.78
2018-05-25T02:16:13.864Z,5.03
2018-05-25T02:18:41.289Z,4.22
2018-05-25T02:21:08.697Z,5.12
2018-05-25T02:23:36.114Z,3.85
2018-05-25T02:26:03.512Z,3.67
2018-05-25T02:28:30.927Z,4.20
2018-05-25T02:30:58.340Z,4.28
2018-05-25T02:33:25.781Z,5.15
2018-05-25T02:35:53.182Z,2.67
2018-05-25T02:38:20.592Z,5.72
2018-05-25T02:40:48.000Z,6.72
2018-05-25T02:43:15.412Z,4.00
2018-05-25T02:45:42.824Z,4.62
2018-05-25T02:48:10.232Z,5.15
2018-05-25T02:50:37.653Z,5.45
2018-05-25T02:53:05.059Z,5.00
2018-05-25T02:55:32.484Z,4.25
2018-05-25T02:57:59.893Z,3.35
2018-05-25T03:00:27.307Z,4.85
2018-05-25T03:02:54.708Z,4.05
2018-05-25T03:05:22.124Z,5.32
2018-05-25T03:07:49.542Z,3.33
2018-05-25T03:10:16.952Z,3.37
2018-05-25T03:12:44.369Z,3.12
2018-05-25T03:15:11.784Z,3.80
2018-05-25T03:17:39.196Z,2.70
2018-05-25T03:20:06.621Z,2.78
2018-05-25T03:22:34.028Z,4.15
2018-05-25T03:25:01.444Z,3.15
2018-05-25T03:27:28.845Z,4.12
2018-05-25T03:29:56.264Z,2.75
2018-05-25T03:32:23.668Z,5.18
2018-05-25T03:34:51.085Z,3.33
2018-05-25T03:37:18.497Z,4.40
2018-05-25T03:39:45.913Z,3.17
2018-05-25T03:42:13.319Z,7.20
2018-05-25T03:44:40.736Z,5.72
2018-05-25T03:47:08.151Z,3.28
2018-05-25T03:49:35.572Z,6.07
2018-05-25T03:52:02.979Z,6.03
2018-05-25T03:54:30.393Z,4.50
2018-05-25T03:56:57.800Z,6.43
2018-05-25T03:59:37.013Z,5.22
2018-05-25T04:02:04.426Z,6.93
2018-05-25T04:04:31.836Z,4.90
2018-05-25T04:07:00.054Z,3.92
2018-05-25T04:09:27.469Z,3.33
2018-05-25T04:11:54.872Z,4.28
2018-05-25T04:14:22.317Z,3.80
2018-05-25T04:16:49.696Z,3.80
2018-05-25T04:19:17.100Z,3.25
2018-05-25T04:21:44.516Z,4.00
2018-05-25T04:24:11.928Z,4.55
2018-05-25T04:26:39.343Z,5.00
2018-05-25T04:29:06.753Z,4.10
2018-05-25T04:31:34.164Z,6.40
2018-05-25T04:34:01.574Z,6.22
2018-05-25T04:36:28.983Z,5.82
2018-05-25T04:38:56.385Z,5.32
2018-05-25T04:41:23.801Z,4.85
2018-05-25T04:43:51.293Z,6.85
2018-05-25T04:46:18.756Z,6.80
2018-05-25T04:48:46.188Z,4.45
2018-05-25T04:51:13.666Z,5.65
2018-05-25T04:53:41.079Z,5.12
2018-05-25T04:56:08.483Z,9.00
2018-05-25T04:58:35.900Z,5.37
2018-05-25T05:01:03.398Z,5.25
2018-05-25T05:03:30.796Z,6.47
2018-05-25T05:05:58.216Z,7.37
2018-05-25T05:08:25.650Z,7.80
2018-05-25T05:10:53.076Z,7.57
2018-05-25T05:13:20.585Z,5.32
2018-05-25T05:15:48.010Z,5.12
2018-05-25T05:18:15.440Z,5.80
2018-05-25T05:20:42.856Z,5.00
2018-05-25T05:23:10.268Z,6.37
2018-05-25T05:25:37.692Z,7.47
2018-05-25T05:28:05.095Z,7.45
2018-05-25T05:30:32.512Z,5.97
2018-05-25T05:32:59.924Z,5.12
2018-05-25T05:35:27.354Z,9.30
2018-05-25T05:37:54.760Z,9.35
2018-05-25T05:40:22.178Z,8.38
2018-05-25T05:42:49.626Z,6.57
2018-05-25T05:45:17.044Z,7.05
2018-05-25T05:47:44.527Z,10.13
2018-05-25T05:50:11.988Z,8.05
2018-05-25T05:52:39.444Z,6.70
2018-05-25T05:55:06.928Z,11.02
2018-05-25T05:57:34.345Z,8.90
2018-05-25T06:00:01.753Z,5.35
2018-05-25T06:02:29.173Z,9.20
2018-05-25T06:04:56.580Z,9.20
2018-05-25T06:07:24.081Z,10.10
2018-05-25T06:09:51.528Z,7.15
2018-05-25T06:12:18.987Z,6.32
2018-05-25T06:14:46.393Z,9.80
2018-05-25T06:17:13.816Z,7.43
2018-05-25T06:19:41.235Z,11.52
2018-05-25T06:22:08.657Z,10.52
2018-05-25T06:24:36.161Z,14.40
2018-05-25T06:27:03.580Z,7.75
2018-05-25T06:29:31.004Z,11.75
2018-05-25T06:31:58.523Z,10.65
2018-05-25T06:34:25.920Z,7.50
2018-05-25T06:36:53.348Z,15.70
2018-05-25T06:39:20.764Z,10.70
2018-05-25T06:41:48.245Z,10.75
2018-05-25T06:44:15.661Z,13.65
2018-05-25T06:46:43.160Z,11.52
2018-05-25T06:49:10.620Z,12.70
2018-05-25T06:51:38.064Z,11.07
2018-05-25T06:54:05.472Z,8.88
2018-05-25T06:56:32.885Z,9.82
2018-05-25T06:59:00.328Z,7.93
2018-05-25T07:01:27.753Z,11.25
2018-05-25T07:03:55.160Z,8.80
2018-05-25T07:06:22.596Z,10.60
2018-05-25T07:08:50.089Z,12.20
2018-05-25T07:11:17.553Z,13.48
2018-05-25T07:13:44.962Z,13.20
2018-05-25T07:16:12.426Z,14.38
2018-05-25T07:18:39.839Z,11.90
2018-05-25T07:21:07.261Z,10.93
2018-05-25T07:23:34.682Z,11.38
2018-05-25T07:26:02.107Z,15.50
2018-05-25T07:28:29.521Z,15.32
2018-05-25T07:30:56.939Z,23.83
2018-05-25T07:33:24.422Z,20.25
2018-05-25T07:35:51.793Z,21.92
2018-05-25T07:38:19.225Z,23.55
2018-05-25T07:40:46.641Z,16.23
2018-05-25T07:43:14.060Z,27.08
2018-05-25T07:45:41.484Z,21.27
2018-05-25T07:48:08.910Z,26.30
2018-05-25T07:50:36.329Z,23.25
2018-05-25T07:53:03.752Z,25.92
2018-05-25T07:55:31.168Z,22.48
2018-05-25T07:57:58.589Z,16.45
2018-05-25T08:00:26.000Z,20.58
2018-05-25T08:02:53.433Z,30.62
2018-05-25T08:05:20.849Z,23.73
2018-05-25T08:07:48.273Z,26.15
2018-05-25T08:10:15.692Z,25.45
2018-05-25T08:12:43.116Z,23.98
2018-05-25T08:15:10.533Z,27.80
2018-05-25T08:17:37.972Z,32.50
2018-05-25T08:20:05.388Z,26.80
2018-05-25T08:22:32.817Z,22.60
2018-05-25T08:25:00.228Z,31.12
2018-05-25T08:27:27.672Z,31.67
2018-05-25T08:29:55.097Z,31.40
2018-05-25T08:32:22.557Z,40.28
2018-05-25T08:34:49.966Z,36.38
2018-05-25T08:37:17.400Z,31.00
2018-05-25T08:39:44.811Z,29.60
2018-05-25T08:42:12.236Z,44.90
2018-05-25T08:44:39.660Z,44.47
2018-05-25T08:47:07.158Z,45.30
2018-05-25T08:49:34.629Z,46.33
2018-05-25T08:52:02.009Z,45.60
2018-05-25T08:54:29.432Z,49.78
2018-05-25T08:56:56.884Z,46.13
2018-05-25T08:59:24.296Z,45.10
2018-05-25T09:01:51.721Z,40.00
2018-05-25T09:04:19.156Z,43.83
2018-05-25T09:06:46.591Z,57.35
2018-05-25T09:09:14.000Z,50.53
2018-05-25T09:11:41.421Z,27.45
2018-05-25T09:14:08.848Z,35.55
2018-05-25T09:16:36.268Z,40.03
2018-05-25T09:19:04.719Z,33.17
2018-05-25T09:21:32.139Z,40.28
2018-05-25T09:23:59.564Z,28.52
2018-05-25T09:26:27.085Z,49.10
2018-05-25T09:28:54.511Z,31.52
2018-05-25T09:31:21.935Z,25.20
2018-05-25T09:33:49.355Z,36.85
2018-05-25T09:36:16.778Z,43.63
2018-05-25T09:38:44.229Z,30.70
2018-05-25T09:41:11.657Z,28.40
2018-05-25T09:43:39.084Z,33.78
2018-05-25T09:46:06.604Z,40.58
2018-05-25T09:48:34.096Z,42.33
2018-05-25T09:51:01.540Z,37.65
2018-05-25T09:53:28.968Z,29.60
2018-05-25T09:55:56.384Z,43.08
2018-05-25T09:58:23.809Z,53.20
2018-05-25T10:00:51.233Z,63.03
2018-05-25T10:03:18.660Z,44.40
2018-05-25T10:05:46.072Z,42.22
2018-05-25T10:08:13.501Z,64.87
2018-05-25T10:10:40.912Z,46.45
2018-05-25T10:13:08.337Z,45.20
2018-05-25T10:15:35.753Z,38.70
2018-05-25T10:18:03.200Z,26.75
2018-05-25T10:20:30.633Z,64.62
2018-05-25T10:22:58.057Z,45.03
2018-05-25T10:25:25.486Z,49.45
2018-05-25T10:27:52.924Z,43.17
2018-05-25T10:30:20.365Z,43.17
2018-05-25T10:32:47.790Z,37.20
2018-05-25T10:35:15.200Z,46.75
2018-05-25T10:37:42.632Z,39.47
2018-05-25T10:40:10.059Z,39.38
2018-05-25T10:42:37.479Z,47.42
2018-05-25T10:45:04.921Z,60.42
2018-05-25T10:47:32.340Z,56.15
2018-05-25T10:49:59.761Z,41.25
2018-05-25T10:52:27.179Z,37.38
2018-05-25T10:54:54.602Z,44.78
2018-05-25T10:57:22.015Z,43.65
2018-05-25T10:59:49.438Z,49.28
2018-05-25T11:02:16.864Z,49.05
2018-05-25T11:04:44.290Z,41.90
2018-05-25T11:07:11.709Z,41.75
2018-05-25T11:09:39.141Z,56.10
2018-05-25T11:12:06.563Z,47.45
2018-05-25T11:14:33.991Z,60.30
2018-05-25T11:17:01.418Z,71.25
2018-05-25T11:19:28.836Z,58.50
2018-05-25T11:21:56.250Z,47.47
2018-05-25T11:24:23.686Z,53.65
2018-05-25T11:26:51.092Z,66.12
2018-05-25T11:29:18.512Z,71.45
2018-05-25T11:31:45.930Z,65.15
2018-05-25T11:34:13.384Z,72.15
2018-05-25T11:36:40.796Z,60.28
2018-05-25T11:39:08.229Z,56.17
2018-05-25T11:41:35.644Z,52.72
2018-05-25T11:44:03.064Z,77.07
2018-05-25T11:46:30.494Z,57.33
2018-05-25T11:48:57.937Z,51.58
2018-05-25T11:51:26.316Z,101.12
2018-05-25T11:53:53.748Z,86.10
2018-05-25T11:56:21.173Z,89.57
2018-05-25T11:58:48.597Z,71.95
2018-05-25T12:01:16.028Z,60.42
2018-05-25T12:03:43.487Z,69.90
2018-05-25T12:06:10.952Z,59.90
2018-05-25T12:08:38.376Z,83.57
2018-05-25T12:11:05.869Z,66.53
2018-05-25T12:13:33.313Z,90.93
2018-05-25T12:16:00.768Z,93.93
2018-05-25T12:18:28.192Z,65.22
2018-05-25T12:20:55.684Z,62.70
2018-05-25T12:23:23.104Z,84.68
2018-05-25T12:25:50.596Z,65.40
2018-05-25T12:28:18.013Z,71.25
2018-05-25T12:30:45.441Z,59.88
2018-05-25T12:33:12.956Z,80.55
2018-05-25T12:35:40.397Z,69.53
2018-05-25T12:38:07.817Z,65.47
2018-05-25T12:40:35.313Z,67.37
2018-05-25T12:43:02.789Z,81.57
2018-05-25T12:45:30.233Z,92.15
2018-05-25T12:47:57.659Z,98.22
2018-05-25T12:50:25.176Z,86.72
2018-05-25T12:52:52.599Z,48.40
2018-05-25T12:55:20.055Z,65.93
2018-05-25T12:57:47.480Z,71.70
2018-05-25T13:00:14.904Z,79.72
2018-05-25T13:02:42.315Z,68.97
2018-05-25T13:05:09.776Z,66.10
2018-05-25T13:07:37.241Z,66.97
2018-05-25T13:10:04.660Z,72.07
2018-05-25T13:12:32.145Z,63.53
2018-05-25T13:14:59.605Z,57.38
2018-05-25T13:17:27.032Z,63.00
2018-05-25T13:19:54.451Z,69.87
2018-05-25T13:22:21.876Z,77.57
2018-05-25T13:24:49.302Z,60.60
2018-05-25T13:27:16.725Z,51.17
2018-05-25T13:29:44.148Z,49.05
2018-05-25T13:32:11.569Z,71.05
2018-05-25T13:34:39.008Z,58.95
2018-05-25T13:37:06.420Z,77.65
2018-05-25T13:39:33.850Z,66.78
2018-05-25T13:42:01.274Z,74.87
2018-05-25T13:44:28.766Z,63.75
2018-05-25T13:46:56.227Z,99.00
2018-05-25T13:49:23.668Z,113.20
2018-05-25T13:51:51.096Z,101.82
2018-05-25T13:54:18.580Z,92.18
2018-05-25T13:56:46.004Z,84.62
2018-05-25T13:59:13.492Z,66.30
2018-05-25T14:01:40.916Z,92.72
2018-05-25T14:04:08.418Z,93.70
2018-05-25T14:06:35.867Z,87.20
2018-05-25T14:09:03.284Z,83.03
2018-05-25T14:11:30.788Z,99.20
2018-05-25T14:13:58.196Z,78.45
2018-05-25T14:16:25.687Z,107.07
2018-05-25T14:18:53.137Z,67.87
2018-05-25T14:21:20.561Z,59.28
2018-05-25T14:23:47.976Z,71.43
2018-05-25T14:26:15.521Z,50.70
2018-05-25T14:28:42.933Z,76.18
2018-05-25T14:31:10.405Z,69.22
2018-05-25T14:33:37.808Z,60.15
2018-05-25T14:36:05.284Z,56.70
2018-05-25T14:38:32.792Z,67.28
2018-05-25T14:41:00.237Z,59.90
2018-05-25T14:43:27.705Z,55.20
2018-05-25T14:45:55.136Z,77.82
2018-05-25T14:48:22.553Z,44.10
2018-05-25T14:50:50.027Z,70.40
2018-05-25T14:53:17.476Z,61.13
2018-05-25T14:55:44.888Z,60.95
2018-05-25T14:58:12.311Z,69.80
2018-05-25T15:00:39.740Z,57.80
2018-05-25T15:03:07.252Z,35.55
2018-05-25T15:05:34.697Z,47.28
2018-05-25T15:08:02.121Z,41.75
2018-05-25T15:10:29.549Z,52.42
2018-05-25T15:12:57.057Z,45.35
2018-05-25T15:15:24.473Z,55.75
2018-05-25T15:17:51.975Z,59.92
2018-05-25T15:20:19.412Z,50.65
2018-05-25T15:22:46.823Z,74.75
2018-05-25T15:25:14.245Z,49.05
2018-05-25T15:27:41.672Z,57.35
2018-05-25T15:30:09.095Z,47.90
2018-05-25T15:32:36.769Z,36.97
2018-05-25T15:35:04.028Z,43.83
2018-05-25T15:37:31.452Z,41.35
2018-05-25T15:39:58.877Z,51.03
2018-05-25T15:42:26.304Z,37.90
2018-05-25T15:44:53.728Z,30.17
2018-05-25T15:47:21.172Z,34.53
2018-05-25T15:49:48.596Z,37.05
2018-05-25T15:52:16.029Z,47.28
2018-05-25T15:54:43.448Z,52.50
2018-05-25T15:57:10.880Z,25.02
2018-05-25T15:59:38.300Z,35.38
2018-05-25T16:02:05.724Z,24.98
2018-05-25T16:04:33.153Z,32.67
2018-05-25T16:07:00.580Z,23.80
2018-05-25T16:09:28.006Z,27.95
2018-05-25T16:11:55.423Z,29.27
2018-05-25T16:14:22.844Z,36.72
2018-05-25T16:16:50.273Z,22.08
2018-05-25T16:19:17.684Z,27.42
2018-05-25T16:21:45.197Z,24.37
2018-05-25T16:24:12.612Z,28.23
2018-05-25T16:26:40.044Z,30.60
2018-05-25T16:29:07.463Z,23.08
2018-05-25T16:31:34.897Z,18.17
2018-05-25T16:34:02.308Z,15.43
2018-05-25T16:36:29.742Z,23.65
2018-05-25T16:38:57.159Z,20.75
2018-05-25T16:41:24.582Z,13.27
2018-05-25T16:43:51.996Z,21.58
2018-05-25T16:46:19.416Z,19.75
2018-05-25T16:48:46.839Z,25.60
2018-05-25T16:51:14.264Z,22.65
2018-05-25T16:53:41.725Z,15.85
2018-05-25T16:56:09.136Z,11.73
2018-05-25T16:58:36.632Z,14.00
2018-05-25T17:01:04.048Z,25.10
2018-05-25T17:03:31.476Z,23.87
2018-05-25T17:05:58.923Z,20.12
2018-05-25T17:08:26.320Z,15.70
2018-05-25T17:10:53.732Z,11.75
2018-05-25T17:13:21.260Z,11.63
2018-05-25T17:15:48.680Z,17.40
2018-05-25T17:18:16.105Z,7.62
2018-05-25T17:20:43.528Z,10.00
2018-05-25T17:23:10.951Z,13.52
2018-05-25T17:25:38.360Z,8.15
2018-05-25T17:28:05.792Z,36.35
2018-05-25T17:30:33.231Z,16.58
2018-05-25T17:33:00.671Z,14.10
2018-05-25T17:35:28.161Z,10.13
2018-05-25T17:37:55.574Z,7.70
2018-05-25T17:40:22.991Z,9.05
2018-05-25T17:42:50.520Z,8.88
2018-05-25T17:45:17.933Z,11.68
2018-05-25T17:47:45.360Z,11.45
2018-05-25T17:50:12.774Z,8.18
2018-05-25T17:52:40.191Z,10.43
2018-05-25T17:55:07.605Z,8.25
2018-05-25T17:57:35.045Z,7.97
2018-05-25T18:00:02.504Z,6.82
2018-05-25T18:02:29.928Z,7.62
2018-05-25T18:04:57.413Z,8.35
2018-05-25T18:07:24.866Z,6.35
2018-05-25T18:09:52.271Z,9.65
2018-05-25T18:12:19.684Z,8.18
2018-05-25T18:14:47.105Z,10.02
2018-05-25T18:17:14.522Z,7.87
2018-05-25T18:19:41.928Z,8.80
2018-05-25T18:22:09.353Z,5.28
2018-05-25T18:24:36.768Z,8.68
2018-05-25T18:27:04.200Z,5.12
2018-05-25T18:29:31.607Z,4.85
2018-05-25T18:31:59.029Z,7.85
2018-05-25T18:34:26.440Z,7.28
2018-05-25T18:36:53.844Z,7.93
2018-05-25T18:39:21.274Z,3.95
2018-05-25T18:41:48.677Z,5.12
2018-05-25T18:44:16.099Z,6.18
2018-05-25T18:46:43.512Z,4.40
2018-05-25T18:49:10.924Z,5.55
2018-05-25T18:51:38.349Z,5.53
2018-05-25T18:54:17.569Z,5.82
2018-05-25T18:56:44.977Z,7.47
2018-05-25T18:59:12.395Z,5.22
2018-05-25T19:01:39.852Z,5.78
2018-05-25T19:04:07.274Z,5.72
2018-05-25T19:06:34.723Z,7.18
2018-05-25T19:09:02.161Z,2.95
2018-05-25T19:11:29.712Z,9.50
2018-05-25T19:13:57.131Z,5.35
2018-05-25T19:16:24.546Z,6.97
2018-05-25T19:18:52.045Z,8.52
2018-05-25T19:21:19.496Z,7.68
2018-05-25T19:23:46.915Z,5.65
2018-05-25T19:26:14.325Z,4.62
2018-05-25T19:28:41.756Z,4.22
2018-05-25T19:31:09.153Z,7.82
2018-05-25T19:33:36.569Z,5.32
2018-05-25T19:36:03.980Z,6.15
2018-05-25T19:38:31.392Z,8.13
2018-05-25T19:40:58.800Z,6.72
2018-05-25T19:43:26.216Z,4.37
2018-05-25T19:45:53.625Z,4.43
2018-05-25T19:48:21.044Z,3.72
2018-05-25T19:50:48.460Z,5.62
2018-05-25T19:53:15.884Z,4.78
2018-05-25T19:55:43.301Z,2.40
2018-05-25T19:58:12.407Z,2.87
2018-05-25T20:00:43.014Z,4.47
2018-05-25T20:03:11.746Z,4.15
2018-05-25T20:05:40.429Z,5.87
2018-05-25T20:08:08.215Z,5.55
2018-05-25T20:10:35.615Z,4.65
2018-05-25T20:13:05.111Z,4.07
2018-05-25T20:15:32.511Z,5.55
2018-05-25T20:17:59.928Z,4.45
2018-05-25T20:20:27.351Z,5.30
2018-05-25T20:22:54.757Z,7.45
2018-05-25T20:25:22.178Z,10.77
2018-05-25T20:27:49.608Z,5.80
2018-05-25T20:30:17.022Z,4.05
2018-05-25T20:32:44.432Z,3.62
2018-05-25T20:35:11.848Z,4.30
2018-05-25T20:37:39.256Z,5.75
2018-05-25T20:40:06.676Z,5.10
2018-05-25T20:42:34.108Z,7.18
2018-05-25T20:45:01.520Z,8.88
2018-05-25T20:47:29.047Z,6.12
2018-05-25T20:49:56.464Z,9.50
2018-05-25T20:52:23.885Z,11.23
2018-05-25T20:54:51.316Z,7.75
2018-05-25T20:57:18.728Z,7.28
2018-05-25T20:59:46.149Z,6.87
2018-05-25T21:02:13.554Z,7.62
2018-05-25T21:04:40.965Z,3.47
2018-05-25T21:07:08.374Z,3.70
2018-05-25T21:09:35.802Z,3.50
2018-05-25T21:12:03.211Z,4.78
2018-05-25T21:14:30.629Z,7.32
2018-05-25T21:16:58.040Z,4.35
2018-05-25T21:19:25.479Z,4.18
2018-05-25T21:21:52.872Z,4.28
2018-05-25T21:24:20.281Z,4.12
2018-05-25T21:26:47.689Z,5.05
2018-05-25T21:29:15.113Z,5.90
2018-05-25T21:31:42.521Z,6.47
2018-05-25T21:34:09.941Z,5.70
2018-05-25T21:36:37.340Z,3.85
2018-05-25T21:39:05.672Z,3.08
2018-05-25T21:41:33.077Z,4.50
2018-05-25T21:44:00.494Z,3.15
2018-05-25T21:46:27.902Z,5.37
2018-05-25T21:48:55.320Z,3.95
2018-05-25T21:51:22.724Z,4.15
2018-05-25T21:53:50.168Z,3.53
2018-05-25T21:56:17.589Z,4.50
2018-05-25T21:58:44.996Z,3.08
2018-05-25T22:01:12.408Z,4.60
2018-05-25T22:03:39.822Z,5.60
2018-05-25T22:06:07.235Z,2.97
2018-05-25T22:08:34.636Z,2.80
2018-05-25T22:11:02.061Z,4.85
2018-05-25T22:13:29.468Z,3.20
2018-05-25T22:15:56.881Z,5.25
2018-05-25T22:18:24.292Z,3.40
2018-05-25T22:20:51.704Z,4.70
2018-05-25T22:23:19.116Z,5.97
2018-05-25T22:25:46.537Z,4.45
2018-05-25T22:28:13.936Z,2.72
2018-05-25T22:30:41.353Z,2.65
2018-05-25T22:33:08.767Z,2.95
2018-05-25T22:35:36.180Z,3.45
2018-05-25T22:38:03.584Z,4.25
2018-05-25T22:40:31.008Z,4.80
2018-05-25T22:43:10.208Z,4.95
2018-05-25T22:45:49.241Z,4.10
2018-05-25T22:48:28.449Z,7.03
2018-05-25T22:51:07.629Z,6.10
2018-05-25T22:56:33.843Z,4.70
2018-05-25T22:59:01.260Z,4.87
2018-05-25T23:01:28.684Z,4.40
2018-05-25T23:03:56.096Z,5.35
2018-05-25T23:06:23.504Z,8.32
2018-05-25T23:08:50.908Z,3.65
2018-05-25T23:11:18.320Z,4.60
2018-05-25T23:13:45.731Z,6.22
2018-05-25T23:16:13.146Z,7.57
2018-05-25T23:18:40.591Z,5.65
2018-05-25T23:21:07.971Z,5.85
2018-05-25T23:23:35.381Z,4.35
2018-05-25T23:26:02.792Z,4.10
2018-05-25T23:28:30.197Z,5.53
2018-05-25T23:30:57.609Z,3.80
2018-05-25T23:33:25.022Z,5.82
2018-05-25T23:35:52.443Z,5.53
2018-05-25T23:38:19.858Z,6.93
2018-05-25T23:40:47.268Z,3.60
2018-05-25T23:43:14.681Z,4.22
2018-05-25T23:45:42.096Z,7.55
2018-05-25T23:48:09.507Z,5.75
2018-05-25T23:50:36.922Z,4.10
2018-05-25T23:53:04.329Z,6.78
2018-05-25T23:55:31.753Z,7.20
2018-05-25T23:57:59.172Z,5.35
